sensor_id;sensor_type;location;lat;lon;timestamp;temperature;humidity
37528;DHT22;23372;52.050;4.810;2023-02-28T00:00:24;1.70;99.90
37528;DHT22;23372;52.050;4.810;2023-02-28T00:02:50;1.70;99.90
37528;DHT22;23372;52.050;4.810;2023-02-28T00:05:21;1.80;99.90
37528;DHT22;23372;52.050;4.810;2023-02-28T00:07:48;1.90;99.90
37528;DHT22;23372;52.050;4.810;2023-02-28T00:10:18;1.90;99.90
37528;DHT22;23372;52.050;4.810;2023-02-28T00:12:49;2.00;99.90
37528;DHT22;23372;52.050;4.810;2023-02-28T00:15:15;2.10;99.90
37528;DHT22;23372;52.050;4.810;2023-02-28T00:17:41;2.10;99.90
37528;DHT22;23372;52.050;4.810;2023-02-28T00:20:09;2.30;99.90
37528;DHT22;23372;52.050;4.810;2023-02-28T00:22:36;2.40;99.90
37528;DHT22;23372;52.050;4.810;2023-02-28T00:25:02;2.40;99.90
37528;DHT22;23372;52.050;4.810;2023-02-28T00:27:29;2.50;99.90
37528;DHT22;23372;52.050;4.810;2023-02-28T00:29:54;2.50;99.90
37528;DHT22;23372;52.050;4.810;2023-02-28T00:32:20;2.60;99.90
37528;DHT22;23372;52.050;4.810;2023-02-28T00:34:45;2.60;99.90
37528;DHT22;23372;52.050;4.810;2023-02-28T00:37:11;2.60;99.90
37528;DHT22;23372;52.050;4.810;2023-02-28T00:39:38;2.70;99.90
37528;DHT22;23372;52.050;4.810;2023-02-28T00:42:04;2.60;99.90
37528;DHT22;23372;52.050;4.810;2023-02-28T00:44:31;2.70;99.90
37528;DHT22;23372;52.050;4.810;2023-02-28T00:46:57;2.70;99.90
37528;DHT22;23372;52.050;4.810;2023-02-28T00:49:23;2.70;99.90
37528;DHT22;23372;52.050;4.810;2023-02-28T00:51:49;2.70;99.90
37528;DHT22;23372;52.050;4.810;2023-02-28T00:54:15;2.70;99.90
37528;DHT22;23372;52.050;4.810;2023-02-28T00:56:41;2.70;99.90
37528;DHT22;23372;52.050;4.810;2023-02-28T00:59:06;2.70;99.90
37528;DHT22;23372;52.050;4.810;2023-02-28T01:01:32;2.80;99.90
37528;DHT22;23372;52.050;4.810;2023-02-28T01:03:58;2.80;99.90
37528;DHT22;23372;52.050;4.810;2023-02-28T01:06:23;2.80;99.90
37528;DHT22;23372;52.050;4.810;2023-02-28T01:08:49;2.80;99.90
37528;DHT22;23372;52.050;4.810;2023-02-28T01:11:17;2.80;99.90
37528;DHT22;23372;52.050;4.810;2023-02-28T01:13:44;2.80;99.90
37528;DHT22;23372;52.050;4.810;2023-02-28T01:16:09;2.90;99.90
37528;DHT22;23372;52.050;4.810;2023-02-28T01:18:36;2.90;99.90
37528;DHT22;23372;52.050;4.810;2023-02-28T01:21:13;2.90;99.90
37528;DHT22;23372;52.050;4.810;2023-02-28T01:23:40;2.90;99.90
37528;DHT22;23372;52.050;4.810;2023-02-28T01:26:06;2.90;99.90
37528;DHT22;23372;52.050;4.810;2023-02-28T01:28:32;2.90;99.90
37528;DHT22;23372;52.050;4.810;2023-02-28T01:30:57;2.90;99.90
37528;DHT22;23372;52.050;4.810;2023-02-28T01:33:23;3.00;99.90
37528;DHT22;23372;52.050;4.810;2023-02-28T01:35:49;3.00;99.90
37528;DHT22;23372;52.050;4.810;2023-02-28T01:38:14;3.00;99.90
37528;DHT22;23372;52.050;4.810;2023-02-28T01:40:40;3.00;99.90
37528;DHT22;23372;52.050;4.810;2023-02-28T01:43:19;3.00;99.90
37528;DHT22;23372;52.050;4.810;2023-02-28T01:45:45;3.00;99.90
37528;DHT22;23372;52.050;4.810;2023-02-28T01:48:10;3.00;99.90
37528;DHT22;23372;52.050;4.810;2023-02-28T01:50:40;3.00;99.90
37528;DHT22;23372;52.050;4.810;2023-02-28T01:53:09;3.00;99.90
37528;DHT22;23372;52.050;4.810;2023-02-28T01:55:36;3.10;99.90
37528;DHT22;23372;52.050;4.810;2023-02-28T01:58:04;3.00;99.90
37528;DHT22;23372;52.050;4.810;2023-02-28T02:00:31;3.10;99.90
37528;DHT22;23372;52.050;4.810;2023-02-28T02:02:59;3.10;99.90
37528;DHT22;23372;52.050;4.810;2023-02-28T02:05:27;3.10;99.90
37528;DHT22;23372;52.050;4.810;2023-02-28T02:08:01;3.10;99.90
37528;DHT22;23372;52.050;4.810;2023-02-28T02:10:35;3.10;99.90
37528;DHT22;23372;52.050;4.810;2023-02-28T02:18:41;3.10;99.90
37528;DHT22;23372;52.050;4.810;2023-02-28T02:26:55;3.20;99.90
37528;DHT22;23372;52.050;4.810;2023-02-28T02:29:52;3.20;99.90
37528;DHT22;23372;52.050;4.810;2023-02-28T02:35:25;3.20;99.90
37528;DHT22;23372;52.050;4.810;2023-02-28T02:38:22;3.20;99.90
37528;DHT22;23372;52.050;4.810;2023-02-28T02:43:54;3.30;99.90
37528;DHT22;23372;52.050;4.810;2023-02-28T02:46:48;3.30;99.90
37528;DHT22;23372;52.050;4.810;2023-02-28T02:49:29;3.30;99.90
37528;DHT22;23372;52.050;4.810;2023-02-28T02:51:57;3.30;99.90
37528;DHT22;23372;52.050;4.810;2023-02-28T02:54:30;3.40;99.90
37528;DHT22;23372;52.050;4.810;2023-02-28T02:57:04;3.40;99.90
37528;DHT22;23372;52.050;4.810;2023-02-28T02:59:32;3.40;99.90
37528;DHT22;23372;52.050;4.810;2023-02-28T03:02:02;3.40;99.90
37528;DHT22;23372;52.050;4.810;2023-02-28T03:04:34;3.40;99.90
37528;DHT22;23372;52.050;4.810;2023-02-28T03:07:01;3.40;99.90
37528;DHT22;23372;52.050;4.810;2023-02-28T03:09:27;3.40;99.90
37528;DHT22;23372;52.050;4.810;2023-02-28T03:11:55;3.40;99.90
37528;DHT22;23372;52.050;4.810;2023-02-28T03:17:17;3.40;99.90
37528;DHT22;23372;52.050;4.810;2023-02-28T03:20:03;3.40;99.90
37528;DHT22;23372;52.050;4.810;2023-02-28T03:30:14;3.40;99.90
37528;DHT22;23372;52.050;4.810;2023-02-28T03:32:56;3.40;99.90
37528;DHT22;23372;52.050;4.810;2023-02-28T03:35:34;3.40;99.90
37528;DHT22;23372;52.050;4.810;2023-02-28T03:38:12;3.40;99.90
37528;DHT22;23372;52.050;4.810;2023-02-28T03:40:42;3.40;99.90
37528;DHT22;23372;52.050;4.810;2023-02-28T03:43:14;3.40;99.90
37528;DHT22;23372;52.050;4.810;2023-02-28T03:45:43;3.40;99.90
37528;DHT22;23372;52.050;4.810;2023-02-28T03:48:38;3.40;99.90
37528;DHT22;23372;52.050;4.810;2023-02-28T03:51:09;3.40;99.90
37528;DHT22;23372;52.050;4.810;2023-02-28T03:53:39;3.50;99.90
37528;DHT22;23372;52.050;4.810;2023-02-28T03:56:14;3.50;99.90
37528;DHT22;23372;52.050;4.810;2023-02-28T03:58:55;3.50;99.90
37528;DHT22;23372;52.050;4.810;2023-02-28T04:01:48;3.50;99.90
37528;DHT22;23372;52.050;4.810;2023-02-28T04:04:15;3.50;99.90
37528;DHT22;23372;52.050;4.810;2023-02-28T04:06:42;3.50;99.90
37528;DHT22;23372;52.050;4.810;2023-02-28T04:09:10;3.50;99.90
37528;DHT22;23372;52.050;4.810;2023-02-28T04:11:45;3.50;99.90
37528;DHT22;23372;52.050;4.810;2023-02-28T04:14:14;3.40;99.90
37528;DHT22;23372;52.050;4.810;2023-02-28T04:16:41;3.50;99.90
37528;DHT22;23372;52.050;4.810;2023-02-28T04:19:08;3.40;99.90
37528;DHT22;23372;52.050;4.810;2023-02-28T04:21:42;3.40;99.90
37528;DHT22;23372;52.050;4.810;2023-02-28T04:24:10;3.40;99.90
37528;DHT22;23372;52.050;4.810;2023-02-28T04:26:41;3.40;99.90
37528;DHT22;23372;52.050;4.810;2023-02-28T04:29:07;3.40;99.90
37528;DHT22;23372;52.050;4.810;2023-02-28T04:31:33;3.40;99.90
37528;DHT22;23372;52.050;4.810;2023-02-28T04:33:59;3.40;99.90
37528;DHT22;23372;52.050;4.810;2023-02-28T04:36:25;3.40;99.90
37528;DHT22;23372;52.050;4.810;2023-02-28T04:38:51;3.50;99.90
37528;DHT22;23372;52.050;4.810;2023-02-28T04:41:17;3.40;99.90
37528;DHT22;23372;52.050;4.810;2023-02-28T04:43:43;3.50;99.90
37528;DHT22;23372;52.050;4.810;2023-02-28T04:46:09;3.50;99.90
37528;DHT22;23372;52.050;4.810;2023-02-28T04:48:36;3.50;99.90
37528;DHT22;23372;52.050;4.810;2023-02-28T04:51:07;3.50;99.90
37528;DHT22;23372;52.050;4.810;2023-02-28T04:53:33;3.40;99.90
37528;DHT22;23372;52.050;4.810;2023-02-28T04:56:00;3.40;99.90
37528;DHT22;23372;52.050;4.810;2023-02-28T04:58:26;3.40;99.90
37528;DHT22;23372;52.050;4.810;2023-02-28T05:00:52;3.40;99.90
37528;DHT22;23372;52.050;4.810;2023-02-28T05:03:18;3.30;99.90
37528;DHT22;23372;52.050;4.810;2023-02-28T05:05:44;3.30;99.90
37528;DHT22;23372;52.050;4.810;2023-02-28T05:08:10;3.30;99.90
37528;DHT22;23372;52.050;4.810;2023-02-28T05:10:37;3.30;99.90
37528;DHT22;23372;52.050;4.810;2023-02-28T05:13:02;3.30;99.90
37528;DHT22;23372;52.050;4.810;2023-02-28T05:15:28;3.30;99.90
37528;DHT22;23372;52.050;4.810;2023-02-28T05:17:53;3.30;99.90
37528;DHT22;23372;52.050;4.810;2023-02-28T05:20:19;3.30;99.90
37528;DHT22;23372;52.050;4.810;2023-02-28T05:22:46;3.30;99.90
37528;DHT22;23372;52.050;4.810;2023-02-28T05:25:16;3.30;99.90
37528;DHT22;23372;52.050;4.810;2023-02-28T05:27:41;3.30;99.90
37528;DHT22;23372;52.050;4.810;2023-02-28T05:30:07;3.20;99.90
37528;DHT22;23372;52.050;4.810;2023-02-28T05:32:36;3.20;99.90
37528;DHT22;23372;52.050;4.810;2023-02-28T05:35:02;3.20;99.90
37528;DHT22;23372;52.050;4.810;2023-02-28T05:37:27;3.20;99.90
37528;DHT22;23372;52.050;4.810;2023-02-28T05:39:53;3.20;99.90
37528;DHT22;23372;52.050;4.810;2023-02-28T05:42:19;3.30;99.90
37528;DHT22;23372;52.050;4.810;2023-02-28T05:44:44;3.20;99.90
37528;DHT22;23372;52.050;4.810;2023-02-28T05:47:10;3.00;99.90
37528;DHT22;23372;52.050;4.810;2023-02-28T05:49:35;3.00;99.90
37528;DHT22;23372;52.050;4.810;2023-02-28T05:52:01;2.90;99.90
37528;DHT22;23372;52.050;4.810;2023-02-28T05:54:26;2.80;99.90
37528;DHT22;23372;52.050;4.810;2023-02-28T05:56:52;2.70;99.90
37528;DHT22;23372;52.050;4.810;2023-02-28T05:59:17;2.60;99.90
37528;DHT22;23372;52.050;4.810;2023-02-28T06:01:45;2.50;99.90
37528;DHT22;23372;52.050;4.810;2023-02-28T06:04:14;2.50;99.90
37528;DHT22;23372;52.050;4.810;2023-02-28T06:06:43;2.40;99.90
37528;DHT22;23372;52.050;4.810;2023-02-28T06:09:09;2.40;99.90
37528;DHT22;23372;52.050;4.810;2023-02-28T06:11:34;2.30;99.90
37528;DHT22;23372;52.050;4.810;2023-02-28T06:14:01;2.30;99.90
37528;DHT22;23372;52.050;4.810;2023-02-28T06:16:28;2.30;99.90
37528;DHT22;23372;52.050;4.810;2023-02-28T06:18:54;2.30;99.90
37528;DHT22;23372;52.050;4.810;2023-02-28T06:21:22;2.30;99.90
37528;DHT22;23372;52.050;4.810;2023-02-28T06:23:48;2.20;99.90
37528;DHT22;23372;52.050;4.810;2023-02-28T06:26:14;2.20;99.90
37528;DHT22;23372;52.050;4.810;2023-02-28T06:28:39;2.00;99.90
37528;DHT22;23372;52.050;4.810;2023-02-28T06:31:09;2.00;99.90
37528;DHT22;23372;52.050;4.810;2023-02-28T06:33:36;1.90;99.90
37528;DHT22;23372;52.050;4.810;2023-02-28T06:36:03;1.80;99.90
37528;DHT22;23372;52.050;4.810;2023-02-28T06:38:28;1.80;99.90
37528;DHT22;23372;52.050;4.810;2023-02-28T06:40:55;1.70;99.90
37528;DHT22;23372;52.050;4.810;2023-02-28T06:43:23;1.70;99.90
37528;DHT22;23372;52.050;4.810;2023-02-28T06:45:49;1.70;99.90
37528;DHT22;23372;52.050;4.810;2023-02-28T06:48:14;1.60;99.90
37528;DHT22;23372;52.050;4.810;2023-02-28T06:50:40;1.60;99.90
37528;DHT22;23372;52.050;4.810;2023-02-28T06:53:06;1.50;99.90
37528;DHT22;23372;52.050;4.810;2023-02-28T06:55:32;1.40;99.90
37528;DHT22;23372;52.050;4.810;2023-02-28T06:57:58;1.40;99.90
37528;DHT22;23372;52.050;4.810;2023-02-28T07:00:23;1.40;99.90
37528;DHT22;23372;52.050;4.810;2023-02-28T07:02:50;1.50;99.90
37528;DHT22;23372;52.050;4.810;2023-02-28T07:05:15;1.60;99.90
37528;DHT22;23372;52.050;4.810;2023-02-28T07:07:41;1.50;99.90
37528;DHT22;23372;52.050;4.810;2023-02-28T07:10:10;1.50;99.90
37528;DHT22;23372;52.050;4.810;2023-02-28T07:12:37;1.60;99.90
37528;DHT22;23372;52.050;4.810;2023-02-28T07:15:03;1.60;99.90
37528;DHT22;23372;52.050;4.810;2023-02-28T07:17:29;1.70;99.90
37528;DHT22;23372;52.050;4.810;2023-02-28T07:19:55;1.70;99.90
37528;DHT22;23372;52.050;4.810;2023-02-28T07:22:20;1.70;99.90
37528;DHT22;23372;52.050;4.810;2023-02-28T07:24:46;1.70;99.90
37528;DHT22;23372;52.050;4.810;2023-02-28T07:27:11;1.70;99.90
37528;DHT22;23372;52.050;4.810;2023-02-28T07:29:37;1.70;99.90
37528;DHT22;23372;52.050;4.810;2023-02-28T07:32:03;1.70;99.90
37528;DHT22;23372;52.050;4.810;2023-02-28T07:34:29;1.80;99.90
37528;DHT22;23372;52.050;4.810;2023-02-28T07:36:55;1.70;99.90
37528;DHT22;23372;52.050;4.810;2023-02-28T07:39:21;1.80;99.90
37528;DHT22;23372;52.050;4.810;2023-02-28T07:41:47;1.80;99.90
37528;DHT22;23372;52.050;4.810;2023-02-28T07:44:13;1.80;99.90
37528;DHT22;23372;52.050;4.810;2023-02-28T07:46:39;1.80;99.90
37528;DHT22;23372;52.050;4.810;2023-02-28T07:49:05;1.90;99.90
37528;DHT22;23372;52.050;4.810;2023-02-28T07:51:31;1.90;99.90
37528;DHT22;23372;52.050;4.810;2023-02-28T07:53:56;2.00;99.90
37528;DHT22;23372;52.050;4.810;2023-02-28T07:56:22;2.00;99.90
37528;DHT22;23372;52.050;4.810;2023-02-28T07:58:48;2.00;99.90
37528;DHT22;23372;52.050;4.810;2023-02-28T08:01:14;2.00;99.90
37528;DHT22;23372;52.050;4.810;2023-02-28T08:03:40;2.00;99.90
37528;DHT22;23372;52.050;4.810;2023-02-28T08:06:07;2.00;99.90
37528;DHT22;23372;52.050;4.810;2023-02-28T08:08:33;2.00;99.90
37528;DHT22;23372;52.050;4.810;2023-02-28T08:11:00;2.00;99.90
37528;DHT22;23372;52.050;4.810;2023-02-28T08:13:27;2.10;99.90
37528;DHT22;23372;52.050;4.810;2023-02-28T08:15:53;2.10;99.90
37528;DHT22;23372;52.050;4.810;2023-02-28T08:18:20;2.20;99.90
37528;DHT22;23372;52.050;4.810;2023-02-28T08:20:46;2.10;99.90
37528;DHT22;23372;52.050;4.810;2023-02-28T08:23:11;2.10;99.90
37528;DHT22;23372;52.050;4.810;2023-02-28T08:25:37;2.10;99.90
37528;DHT22;23372;52.050;4.810;2023-02-28T08:28:02;2.20;99.90
37528;DHT22;23372;52.050;4.810;2023-02-28T08:30:28;2.20;99.90
37528;DHT22;23372;52.050;4.810;2023-02-28T08:32:54;2.20;99.90
37528;DHT22;23372;52.050;4.810;2023-02-28T08:35:20;2.20;99.90
37528;DHT22;23372;52.050;4.810;2023-02-28T08:37:48;2.30;99.90
37528;DHT22;23372;52.050;4.810;2023-02-28T08:40:14;2.30;99.90
37528;DHT22;23372;52.050;4.810;2023-02-28T08:42:44;2.40;99.90
37528;DHT22;23372;52.050;4.810;2023-02-28T08:45:10;2.40;99.90
37528;DHT22;23372;52.050;4.810;2023-02-28T08:47:36;2.30;99.90
37528;DHT22;23372;52.050;4.810;2023-02-28T08:50:01;2.30;99.90
37528;DHT22;23372;52.050;4.810;2023-02-28T08:52:27;2.30;99.90
37528;DHT22;23372;52.050;4.810;2023-02-28T08:54:52;2.40;99.90
37528;DHT22;23372;52.050;4.810;2023-02-28T08:57:18;2.60;99.90
37528;DHT22;23372;52.050;4.810;2023-02-28T08:59:43;2.50;99.90
37528;DHT22;23372;52.050;4.810;2023-02-28T09:02:12;2.60;99.90
37528;DHT22;23372;52.050;4.810;2023-02-28T09:04:38;2.60;99.90
37528;DHT22;23372;52.050;4.810;2023-02-28T09:07:03;2.60;99.90
37528;DHT22;23372;52.050;4.810;2023-02-28T09:09:29;2.60;99.90
37528;DHT22;23372;52.050;4.810;2023-02-28T09:11:58;2.60;99.90
37528;DHT22;23372;52.050;4.810;2023-02-28T09:14:23;2.70;99.90
37528;DHT22;23372;52.050;4.810;2023-02-28T09:16:49;2.60;99.90
37528;DHT22;23372;52.050;4.810;2023-02-28T09:19:15;2.70;99.90
37528;DHT22;23372;52.050;4.810;2023-02-28T09:21:40;2.80;99.90
37528;DHT22;23372;52.050;4.810;2023-02-28T09:24:06;2.90;99.90
37528;DHT22;23372;52.050;4.810;2023-02-28T09:26:32;2.90;99.90
37528;DHT22;23372;52.050;4.810;2023-02-28T09:28:57;3.10;99.90
37528;DHT22;23372;52.050;4.810;2023-02-28T09:31:26;3.00;99.90
37528;DHT22;23372;52.050;4.810;2023-02-28T09:33:55;3.00;99.90
37528;DHT22;23372;52.050;4.810;2023-02-28T09:36:23;3.00;99.90
37528;DHT22;23372;52.050;4.810;2023-02-28T09:38:48;3.10;99.90
37528;DHT22;23372;52.050;4.810;2023-02-28T09:41:20;3.20;99.90
37528;DHT22;23372;52.050;4.810;2023-02-28T09:43:49;3.30;99.90
37528;DHT22;23372;52.050;4.810;2023-02-28T09:46:29;3.40;99.90
37528;DHT22;23372;52.050;4.810;2023-02-28T09:48:56;3.50;99.90
37528;DHT22;23372;52.050;4.810;2023-02-28T09:54:23;3.60;99.90
37528;DHT22;23372;52.050;4.810;2023-02-28T09:57:29;3.70;99.90
37528;DHT22;23372;52.050;4.810;2023-02-28T10:00:20;3.80;99.90
37528;DHT22;23372;52.050;4.810;2023-02-28T10:10:54;4.00;99.90
37528;DHT22;23372;52.050;4.810;2023-02-28T10:13:32;4.10;99.90
37528;DHT22;23372;52.050;4.810;2023-02-28T10:16:06;4.20;99.90
37528;DHT22;23372;52.050;4.810;2023-02-28T10:18:54;4.20;99.90
37528;DHT22;23372;52.050;4.810;2023-02-28T10:24:28;5.10;99.90
37528;DHT22;23372;52.050;4.810;2023-02-28T10:27:01;5.80;99.90
37528;DHT22;23372;52.050;4.810;2023-02-28T10:29:31;5.30;99.90
37528;DHT22;23372;52.050;4.810;2023-02-28T10:31:59;5.00;99.90
37528;DHT22;23372;52.050;4.810;2023-02-28T10:34:26;4.60;99.90
37528;DHT22;23372;52.050;4.810;2023-02-28T10:36:51;4.70;99.90
37528;DHT22;23372;52.050;4.810;2023-02-28T10:39:37;5.10;99.90
37528;DHT22;23372;52.050;4.810;2023-02-28T10:42:04;5.10;99.90
37528;DHT22;23372;52.050;4.810;2023-02-28T10:44:29;5.20;99.90
37528;DHT22;23372;52.050;4.810;2023-02-28T10:46:55;5.80;99.90
37528;DHT22;23372;52.050;4.810;2023-02-28T10:49:24;6.20;99.90
37528;DHT22;23372;52.050;4.810;2023-02-28T10:51:59;6.80;99.90
37528;DHT22;23372;52.050;4.810;2023-02-28T10:57:20;8.30;99.90
37528;DHT22;23372;52.050;4.810;2023-02-28T10:59:52;8.20;99.90
37528;DHT22;23372;52.050;4.810;2023-02-28T11:02:36;8.50;99.90
37528;DHT22;23372;52.050;4.810;2023-02-28T11:05:29;9.30;99.90
37528;DHT22;23372;52.050;4.810;2023-02-28T11:07:59;8.40;99.90
37528;DHT22;23372;52.050;4.810;2023-02-28T11:10:31;7.60;99.90
37528;DHT22;23372;52.050;4.810;2023-02-28T11:13:00;8.10;99.90
37528;DHT22;23372;52.050;4.810;2023-02-28T11:15:32;8.20;99.90
37528;DHT22;23372;52.050;4.810;2023-02-28T11:18:02;8.10;99.90
37528;DHT22;23372;52.050;4.810;2023-02-28T11:20:32;8.00;99.90
37528;DHT22;23372;52.050;4.810;2023-02-28T11:23:01;7.40;99.90
37528;DHT22;23372;52.050;4.810;2023-02-28T11:25:31;7.40;99.90
37528;DHT22;23372;52.050;4.810;2023-02-28T11:28:02;7.50;99.90
37528;DHT22;23372;52.050;4.810;2023-02-28T11:33:32;7.50;99.90
37528;DHT22;23372;52.050;4.810;2023-02-28T11:36:04;7.80;99.90
37528;DHT22;23372;52.050;4.810;2023-02-28T11:38:35;7.70;99.90
37528;DHT22;23372;52.050;4.810;2023-02-28T11:41:29;8.00;99.90
37528;DHT22;23372;52.050;4.810;2023-02-28T11:46:38;7.90;99.90
37528;DHT22;23372;52.050;4.810;2023-02-28T11:49:29;7.50;99.90
37528;DHT22;23372;52.050;4.810;2023-02-28T11:52:26;7.90;99.90
37528;DHT22;23372;52.050;4.810;2023-02-28T11:55:16;6.60;99.90
37528;DHT22;23372;52.050;4.810;2023-02-28T12:13:12;8.20;99.90
37528;DHT22;23372;52.050;4.810;2023-02-28T12:15:32;8.10;99.90
37528;DHT22;23372;52.050;4.810;2023-02-28T12:20:42;8.40;99.90
37528;DHT22;23372;52.050;4.810;2023-02-28T12:26:15;7.80;99.90
37528;DHT22;23372;52.050;4.810;2023-02-28T12:28:57;8.00;99.90
37528;DHT22;23372;52.050;4.810;2023-02-28T12:31:27;8.20;99.90
37528;DHT22;23372;52.050;4.810;2023-02-28T12:34:01;8.30;99.90
37528;DHT22;23372;52.050;4.810;2023-02-28T12:36:28;8.30;99.90
37528;DHT22;23372;52.050;4.810;2023-02-28T12:38:59;8.50;99.90
37528;DHT22;23372;52.050;4.810;2023-02-28T12:41:48;8.50;99.90
37528;DHT22;23372;52.050;4.810;2023-02-28T12:44:24;8.10;99.90
37528;DHT22;23372;52.050;4.810;2023-02-28T12:46:55;8.00;99.90
37528;DHT22;23372;52.050;4.810;2023-02-28T12:49:28;7.90;99.90
37528;DHT22;23372;52.050;4.810;2023-02-28T12:51:57;7.80;99.90
37528;DHT22;23372;52.050;4.810;2023-02-28T12:54:26;7.90;99.90
37528;DHT22;23372;52.050;4.810;2023-02-28T12:59:35;7.80;99.90
37528;DHT22;23372;52.050;4.810;2023-02-28T13:10:24;7.50;99.90
37528;DHT22;23372;52.050;4.810;2023-02-28T13:12:52;7.40;99.90
37528;DHT22;23372;52.050;4.810;2023-02-28T13:15:22;6.80;99.90
37528;DHT22;23372;52.050;4.810;2023-02-28T13:17:57;7.00;99.90
37528;DHT22;23372;52.050;4.810;2023-02-28T13:22:53;7.30;99.90
37528;DHT22;23372;52.050;4.810;2023-02-28T13:27:49;7.00;99.90
37528;DHT22;23372;52.050;4.810;2023-02-28T13:38:52;6.90;99.90
37528;DHT22;23372;52.050;4.810;2023-02-28T13:44:08;6.90;99.90
37528;DHT22;23372;52.050;4.810;2023-02-28T13:49:28;7.10;99.90
37528;DHT22;23372;52.050;4.810;2023-02-28T13:54:54;7.00;99.90
37528;DHT22;23372;52.050;4.810;2023-02-28T14:00:23;7.00;99.90
37528;DHT22;23372;52.050;4.810;2023-02-28T14:06:16;7.00;99.90
37528;DHT22;23372;52.050;4.810;2023-02-28T14:11:48;7.10;99.90
37528;DHT22;23372;52.050;4.810;2023-02-28T14:17:03;6.80;99.90
37528;DHT22;23372;52.050;4.810;2023-02-28T14:19:31;6.70;99.90
37528;DHT22;23372;52.050;4.810;2023-02-28T14:36:00;6.50;99.90
37528;DHT22;23372;52.050;4.810;2023-02-28T14:38:50;6.40;99.90
37528;DHT22;23372;52.050;4.810;2023-02-28T14:41:24;6.50;99.90
37528;DHT22;23372;52.050;4.810;2023-02-28T14:43:53;6.50;99.90
37528;DHT22;23372;52.050;4.810;2023-02-28T14:46:20;6.50;99.90
37528;DHT22;23372;52.050;4.810;2023-02-28T14:48:47;6.50;99.90
37528;DHT22;23372;52.050;4.810;2023-02-28T14:51:19;6.50;99.90
37528;DHT22;23372;52.050;4.810;2023-02-28T14:53:49;6.50;99.90
37528;DHT22;23372;52.050;4.810;2023-02-28T14:56:27;6.50;99.90
37528;DHT22;23372;52.050;4.810;2023-02-28T14:58:56;6.60;99.90
37528;DHT22;23372;52.050;4.810;2023-02-28T15:01:23;6.50;99.90
37528;DHT22;23372;52.050;4.810;2023-02-28T15:03:58;6.50;99.90
37528;DHT22;23372;52.050;4.810;2023-02-28T15:06:24;6.60;99.90
37528;DHT22;23372;52.050;4.810;2023-02-28T15:09:24;6.70;99.90
37528;DHT22;23372;52.050;4.810;2023-02-28T15:11:50;6.70;99.90
37528;DHT22;23372;52.050;4.810;2023-02-28T15:14:19;6.70;99.90
37528;DHT22;23372;52.050;4.810;2023-02-28T15:16:46;6.80;99.90
37528;DHT22;23372;52.050;4.810;2023-02-28T15:19:22;6.90;99.90
37528;DHT22;23372;52.050;4.810;2023-02-28T15:22:13;7.00;99.90
37528;DHT22;23372;52.050;4.810;2023-02-28T15:24:40;7.00;99.90
37528;DHT22;23372;52.050;4.810;2023-02-28T15:27:12;7.00;99.90
37528;DHT22;23372;52.050;4.810;2023-02-28T15:29:45;6.90;99.90
37528;DHT22;23372;52.050;4.810;2023-02-28T15:34:50;7.00;99.90
37528;DHT22;23372;52.050;4.810;2023-02-28T15:37:37;6.90;99.90
37528;DHT22;23372;52.050;4.810;2023-02-28T15:43:06;6.70;99.90
37528;DHT22;23372;52.050;4.810;2023-02-28T15:45:45;6.60;99.90
37528;DHT22;23372;52.050;4.810;2023-02-28T15:48:27;6.50;99.90
37528;DHT22;23372;52.050;4.810;2023-02-28T15:51:06;6.40;99.90
37528;DHT22;23372;52.050;4.810;2023-02-28T15:53:37;6.30;99.90
37528;DHT22;23372;52.050;4.810;2023-02-28T15:56:20;6.20;99.90
37528;DHT22;23372;52.050;4.810;2023-02-28T15:58:47;6.20;99.90
37528;DHT22;23372;52.050;4.810;2023-02-28T16:01:17;6.10;99.90
37528;DHT22;23372;52.050;4.810;2023-02-28T16:03:47;5.90;99.90
37528;DHT22;23372;52.050;4.810;2023-02-28T16:08:42;5.80;99.90
37528;DHT22;23372;52.050;4.810;2023-02-28T16:11:10;5.80;99.90
37528;DHT22;23372;52.050;4.810;2023-02-28T16:13:36;5.70;99.90
37528;DHT22;23372;52.050;4.810;2023-02-28T16:16:02;5.80;99.90
37528;DHT22;23372;52.050;4.810;2023-02-28T16:18:28;5.70;99.90
37528;DHT22;23372;52.050;4.810;2023-02-28T16:20:54;5.60;99.90
37528;DHT22;23372;52.050;4.810;2023-02-28T16:23:19;5.60;99.90
37528;DHT22;23372;52.050;4.810;2023-02-28T16:25:45;5.50;99.90
37528;DHT22;23372;52.050;4.810;2023-02-28T16:28:26;5.40;99.90
37528;DHT22;23372;52.050;4.810;2023-02-28T16:30:56;5.40;99.90
37528;DHT22;23372;52.050;4.810;2023-02-28T16:33:22;5.30;99.90
37528;DHT22;23372;52.050;4.810;2023-02-28T16:35:48;5.30;99.90
37528;DHT22;23372;52.050;4.810;2023-02-28T16:38:13;5.20;99.90
37528;DHT22;23372;52.050;4.810;2023-02-28T16:40:39;5.20;99.90
37528;DHT22;23372;52.050;4.810;2023-02-28T16:43:08;5.10;99.90
37528;DHT22;23372;52.050;4.810;2023-02-28T16:45:35;5.10;99.90
37528;DHT22;23372;52.050;4.810;2023-02-28T16:48:01;5.00;99.90
37528;DHT22;23372;52.050;4.810;2023-02-28T16:50:28;5.00;99.90
37528;DHT22;23372;52.050;4.810;2023-02-28T16:52:55;4.90;99.90
37528;DHT22;23372;52.050;4.810;2023-02-28T16:55:22;4.80;99.90
37528;DHT22;23372;52.050;4.810;2023-02-28T16:57:52;4.80;99.90
37528;DHT22;23372;52.050;4.810;2023-02-28T17:00:19;4.70;99.90
37528;DHT22;23372;52.050;4.810;2023-02-28T17:02:44;4.60;99.90
37528;DHT22;23372;52.050;4.810;2023-02-28T17:05:13;4.50;99.90
37528;DHT22;23372;52.050;4.810;2023-02-28T17:07:40;4.50;99.90
37528;DHT22;23372;52.050;4.810;2023-02-28T17:12:39;4.30;99.90
37528;DHT22;23372;52.050;4.810;2023-02-28T17:15:06;4.30;99.90
37528;DHT22;23372;52.050;4.810;2023-02-28T17:17:31;4.20;99.90
37528;DHT22;23372;52.050;4.810;2023-02-28T17:19:57;4.20;99.90
37528;DHT22;23372;52.050;4.810;2023-02-28T17:22:23;4.10;99.90
37528;DHT22;23372;52.050;4.810;2023-02-28T17:24:51;4.00;99.90
37528;DHT22;23372;52.050;4.810;2023-02-28T17:27:16;4.00;99.90
37528;DHT22;23372;52.050;4.810;2023-02-28T17:29:42;3.90;99.90
37528;DHT22;23372;52.050;4.810;2023-02-28T17:32:07;3.90;99.90
37528;DHT22;23372;52.050;4.810;2023-02-28T17:34:33;3.80;99.90
37528;DHT22;23372;52.050;4.810;2023-02-28T17:36:58;3.70;99.90
37528;DHT22;23372;52.050;4.810;2023-02-28T17:39:24;3.70;99.90
37528;DHT22;23372;52.050;4.810;2023-02-28T17:41:54;3.60;99.90
37528;DHT22;23372;52.050;4.810;2023-02-28T17:44:23;3.60;99.90
37528;DHT22;23372;52.050;4.810;2023-02-28T17:46:50;3.60;99.90
37528;DHT22;23372;52.050;4.810;2023-02-28T17:49:17;3.50;99.90
37528;DHT22;23372;52.050;4.810;2023-02-28T17:51:42;3.50;99.90
37528;DHT22;23372;52.050;4.810;2023-02-28T17:54:08;3.50;99.90
37528;DHT22;23372;52.050;4.810;2023-02-28T17:56:34;3.50;99.90
37528;DHT22;23372;52.050;4.810;2023-02-28T17:58:59;3.50;99.90
37528;DHT22;23372;52.050;4.810;2023-02-28T18:01:25;3.40;99.90
37528;DHT22;23372;52.050;4.810;2023-02-28T18:03:52;3.40;99.90
37528;DHT22;23372;52.050;4.810;2023-02-28T18:06:24;3.40;99.90
37528;DHT22;23372;52.050;4.810;2023-02-28T18:08:51;3.30;99.90
37528;DHT22;23372;52.050;4.810;2023-02-28T18:11:18;3.30;99.90
37528;DHT22;23372;52.050;4.810;2023-02-28T18:13:49;3.30;99.90
37528;DHT22;23372;52.050;4.810;2023-02-28T18:16:15;3.30;99.90
37528;DHT22;23372;52.050;4.810;2023-02-28T18:18:41;3.30;99.90